Station Historical Data
Daily Summary for June 7, 2017 Units:  Both    English   Metric
« Previous Day
Next Day »
Daily Weekly Monthly Yearly Custom
  High: Low: Average:
Temperature: 70.8 °F /  21.6 °C 50.9 °F /  10.5 °C 59.7 °F /  15.4 °C
Dew Point: 53.5 °F /  11.9 °C 44.5 °F /  6.9 °C 48.3 °F /  9.1 °C
Humidity: 92% 41% 69%
Wind Speed: 13.0mph /  20.9km/h - 3.4mph /  5.5km/h
Wind Gust: 17.0mph /  27.4km/h - -
Wind- - ENE
Pressure: 30.10 in /  1019.2 hPa 29.98 in /  1015.1 hPa -
Precipitation: 0.00 in /  0 mm    
Historical Graphs
 
 
Tabular Data for June 7, 2017
Time Temperature Dew Point Pressure Wind Wind Speed Wind Gust Humidity Rainfall Rate (Hourly)
00:04 51.2 °F /  10.7 °C 49.0 °F /  9.4 °C 29.98in /  1015.1hPa NE 2.0mph /  3.2km/h 9.0mph /  14.5km/h 92% 0.01in /  0.25mm
00:09 51.2 °F /  10.7 °C 49.0 °F /  9.4 °C 29.98in /  1015.1hPa NE 2.0mph /  3.2km/h 8.0mph /  12.9km/h 92% 0.01in /  0.25mm
00:14 51.2 °F /  10.7 °C 49.0 °F /  9.4 °C 29.98in /  1015.1hPa NE 1.0mph /  1.6km/h 3.0mph /  4.8km/h 92% 0.01in /  0.25mm
00:19 51.1 °F /  10.6 °C 48.9 °F /  9.4 °C 29.98in /  1015.1hPa ENE 1.0mph /  1.6km/h 8.0mph /  12.9km/h 92% 0.01in /  0.25mm
00:24 51.0 °F /  10.6 °C 48.8 °F /  9.3 °C 29.99in /  1015.5hPa NNE 2.0mph /  3.2km/h 9.0mph /  14.5km/h 92% 0.01in /  0.25mm
00:29 51.0 °F /  10.6 °C 48.8 °F /  9.3 °C 29.98in /  1015.1hPa NE 1.0mph /  1.6km/h 5.0mph /  8km/h 92% 0.01in /  0.25mm
00:34 51.0 °F /  10.6 °C 48.8 °F /  9.3 °C 29.99in /  1015.5hPa NE 3.0mph /  4.8km/h 8.0mph /  12.9km/h 92% 0.01in /  0.25mm
00:39 51.0 °F /  10.6 °C 48.8 °F /  9.3 °C 29.99in /  1015.5hPa NE 3.0mph /  4.8km/h 8.0mph /  12.9km/h 92% 0.01in /  0.25mm
00:44 51.0 °F /  10.6 °C 48.8 °F /  9.3 °C 29.99in /  1015.5hPa NE 3.0mph /  4.8km/h 8.0mph /  12.9km/h 92% 0.01in /  0.25mm
00:49 51.0 °F /  10.6 °C 48.8 °F /  9.3 °C 29.99in /  1015.5hPa ENE 2.0mph /  3.2km/h 8.0mph /  12.9km/h 92% 0.00in /  0mm
00:54 51.0 °F /  10.6 °C 48.8 °F /  9.3 °C 29.98in /  1015.1hPa NE 3.0mph /  4.8km/h 7.0mph /  11.3km/h 92% 0.00in /  0mm
00:59 51.1 °F /  10.6 °C 48.9 °F /  9.4 °C 29.98in /  1015.1hPa NE 3.0mph /  4.8km/h 5.0mph /  8km/h 92% 0.00in /  0mm
01:04 51.0 °F /  10.6 °C 48.8 °F /  9.3 °C 29.98in /  1015.1hPa NE 3.0mph /  4.8km/h 6.0mph /  9.7km/h 92% 0.00in /  0mm
01:09 51.0 °F /  10.6 °C 48.8 °F /  9.3 °C 29.98in /  1015.1hPa NE 4.0mph /  6.4km/h 11.0mph /  17.7km/h 92% 0.00in /  0mm
01:14 51.0 °F /  10.6 °C 48.8 °F /  9.3 °C 29.98in /  1015.1hPa NE 4.0mph /  6.4km/h 11.0mph /  17.7km/h 92% 0.00in /  0mm
01:19 51.0 °F /  10.6 °C 48.8 °F /  9.3 °C 29.98in /  1015.1hPa ENE 4.0mph /  6.4km/h 9.0mph /  14.5km/h 92% 0.00in /  0mm
01:24 51.1 °F /  10.6 °C 48.9 °F /  9.4 °C 29.98in /  1015.1hPa ESE 7.0mph /  11.3km/h 9.0mph /  14.5km/h 92% 0.00in /  0mm
01:29 51.0 °F /  10.6 °C 48.8 °F /  9.3 °C 29.98in /  1015.1hPa NE 1.0mph /  1.6km/h 9.0mph /  14.5km/h 92% 0.00in /  0mm
01:34 51.1 °F /  10.6 °C 48.9 °F /  9.4 °C 29.98in /  1015.1hPa NE 3.0mph /  4.8km/h 9.0mph /  14.5km/h 92% 0.00in /  0mm
01:39 51.2 °F /  10.7 °C 49.0 °F /  9.4 °C 29.99in /  1015.5hPa NE 2.0mph /  3.2km/h 7.0mph /  11.3km/h 92% 0.00in /  0mm
01:44 51.2 °F /  10.7 °C 49.0 °F /  9.4 °C 29.99in /  1015.5hPa NE 2.0mph /  3.2km/h 4.0mph /  6.4km/h 92% 0.00in /  0mm
01:49 51.1 °F /  10.6 °C 48.9 °F /  9.4 °C 29.98in /  1015.1hPa ENE 3.0mph /  4.8km/h 3.0mph /  4.8km/h 92% 0.00in /  0mm
01:54 51.2 °F /  10.7 °C 49.0 °F /  9.4 °C 29.98in /  1015.1hPa North 1.0mph /  1.6km/h 5.0mph /  8km/h 92% 0.00in /  0mm
01:59 51.2 °F /  10.7 °C 49.0 °F /  9.4 °C 29.98in /  1015.1hPa Calm   4.0mph /  6.4km/h 92% 0.00in /  0mm
02:04 51.2 °F /  10.7 °C 49.0 °F /  9.4 °C 29.98in /  1015.1hPa NE 2.0mph /  3.2km/h 4.0mph /  6.4km/h 92% 0.00in /  0mm
02:09 51.2 °F /  10.7 °C 49.0 °F /  9.4 °C 29.98in /  1015.1hPa NE 2.0mph /  3.2km/h 7.0mph /  11.3km/h 92% 0.00in /  0mm
02:14 51.2 °F /  10.7 °C 49.0 °F /  9.4 °C 29.99in /  1015.5hPa NE 2.0mph /  3.2km/h 7.0mph /  11.3km/h 92% 0.00in /  0mm
02:19 51.2 °F /  10.7 °C 49.0 °F /  9.4 °C 29.99in /  1015.5hPa NNW 6.0mph /  9.7km/h 6.0mph /  9.7km/h 92% 0.00in /  0mm
02:24 51.2 °F /  10.7 °C 49.0 °F /  9.4 °C 29.98in /  1015.1hPa NNW 1.0mph /  1.6km/h 7.0mph /  11.3km/h 92% 0.00in /  0mm
02:29 51.2 °F /  10.7 °C 49.0 °F /  9.4 °C 29.99in /  1015.5hPa NNW 1.0mph /  1.6km/h 3.0mph /  4.8km/h 92% 0.00in /  0mm
02:34 51.2 °F /  10.7 °C 49.0 °F /  9.4 °C 29.99in /  1015.5hPa North 1.0mph /  1.6km/h 5.0mph /  8km/h 92% 0.00in /  0mm
02:39 51.2 °F /  10.7 °C 49.0 °F /  9.4 °C 29.98in /  1015.1hPa NE 1.0mph /  1.6km/h 5.0mph /  8km/h 92% 0.00in /  0mm
02:44 51.2 °F /  10.7 °C 49.0 °F /  9.4 °C 29.98in /  1015.1hPa NE 2.0mph /  3.2km/h 3.0mph /  4.8km/h 92% 0.00in /  0mm
02:49 51.1 °F /  10.6 °C 48.9 °F /  9.4 °C 29.98in /  1015.1hPa NE 3.0mph /  4.8km/h 3.0mph /  4.8km/h 92% 0.00in /  0mm
02:54 51.1 °F /  10.6 °C 48.9 °F /  9.4 °C 29.98in /  1015.1hPa NNE 3.0mph /  4.8km/h 4.0mph /  6.4km/h 92% 0.00in /  0mm
02:59 51.1 °F /  10.6 °C 48.9 °F /  9.4 °C 29.98in /  1015.1hPa NE 2.0mph /  3.2km/h 5.0mph /  8km/h 92% 0.00in /  0mm
03:04 51.1 °F /  10.6 °C 48.9 °F /  9.4 °C 29.99in /  1015.5hPa NE 2.0mph /  3.2km/h 5.0mph /  8km/h 92% 0.00in /  0mm
03:09 51.1 °F /  10.6 °C 48.9 °F /  9.4 °C 29.98in /  1015.1hPa NE 2.0mph /  3.2km/h 4.0mph /  6.4km/h 92% 0.00in /  0mm
03:14 51.0 °F /  10.6 °C 48.8 °F /  9.3 °C 29.99in /  1015.5hPa NE 2.0mph /  3.2km/h 7.0mph /  11.3km/h 92% 0.00in /  0mm
03:19 51.0 °F /  10.6 °C 48.8 °F /  9.3 °C 29.99in /  1015.5hPa NE 3.0mph /  4.8km/h 7.0mph /  11.3km/h 92% 0.00in /  0mm
03:24 51.1 °F /  10.6 °C 48.9 °F /  9.4 °C 29.99in /  1015.5hPa Calm   9.0mph /  14.5km/h 92% 0.00in /  0mm
03:29 51.0 °F /  10.6 °C 48.8 °F /  9.3 °C 29.99in /  1015.5hPa NNE 1.0mph /  1.6km/h 8.0mph /  12.9km/h 92% 0.00in /  0mm
03:34 51.0 °F /  10.6 °C 48.8 °F /  9.3 °C 29.99in /  1015.5hPa NE 3.0mph /  4.8km/h 8.0mph /  12.9km/h 92% 0.00in /  0mm
03:39 51.0 °F /  10.6 °C 48.8 °F /  9.3 °C 29.99in /  1015.5hPa NE 2.0mph /  3.2km/h 10.0mph /  16.1km/h 92% 0.00in /  0mm
03:44 50.9 °F /  10.5 °C 48.7 °F /  9.3 °C 29.99in /  1015.5hPa ENE 2.0mph /  3.2km/h 5.0mph /  8km/h 92% 0.00in /  0mm
03:49 51.0 °F /  10.6 °C 48.8 °F /  9.3 °C 29.99in /  1015.5hPa NNE 2.0mph /  3.2km/h 4.0mph /  6.4km/h 92% 0.00in /  0mm
03:54 51.0 °F /  10.6 °C 48.8 °F /  9.3 °C 29.99in /  1015.5hPa NNE 1.0mph /  1.6km/h 4.0mph /  6.4km/h 92% 0.00in /  0mm
03:59 51.0 °F /  10.6 °C 48.8 °F /  9.3 °C 29.99in /  1015.5hPa North 2.0mph /  3.2km/h 7.0mph /  11.3km/h 92% 0.00in /  0mm
04:04 51.0 °F /  10.6 °C 48.8 °F /  9.3 °C 29.99in /  1015.5hPa North 2.0mph /  3.2km/h 7.0mph /  11.3km/h 92% 0.00in /  0mm
04:09 51.0 °F /  10.6 °C 48.8 °F /  9.3 °C 30.00in /  1015.8hPa NNE 2.0mph /  3.2km/h 7.0mph /  11.3km/h 92% 0.00in /  0mm
04:14 51.0 °F /  10.6 °C 48.8 °F /  9.3 °C 30.00in /  1015.8hPa NNE 2.0mph /  3.2km/h 7.0mph /  11.3km/h 92% 0.00in /  0mm
04:19 50.9 °F /  10.5 °C 48.7 °F /  9.3 °C 30.00in /  1015.8hPa North 2.0mph /  3.2km/h 6.0mph /  9.7km/h 92% 0.00in /  0mm
04:24 50.9 °F /  10.5 °C 48.7 °F /  9.3 °C 30.00in /  1015.8hPa Calm   6.0mph /  9.7km/h 92% 0.00in /  0mm
04:29 50.9 °F /  10.5 °C 48.7 °F /  9.3 °C 30.00in /  1015.8hPa Calm   4.0mph /  6.4km/h 92% 0.00in /  0mm
04:34 51.0 °F /  10.6 °C 48.8 °F /  9.3 °C 30.00in /  1015.8hPa NNW 1.0mph /  1.6km/h 4.0mph /  6.4km/h 92% 0.00in /  0mm
04:39 51.0 °F /  10.6 °C 48.8 °F /  9.3 °C 30.00in /  1015.8hPa NNW 1.0mph /  1.6km/h 4.0mph /  6.4km/h 92% 0.00in /  0mm
04:44 51.0 °F /  10.6 °C 48.8 °F /  9.3 °C 30.00in /  1015.8hPa NNW 1.0mph /  1.6km/h 3.0mph /  4.8km/h 92% 0.00in /  0mm
04:49 50.9 °F /  10.5 °C 48.7 °F /  9.3 °C 30.00in /  1015.8hPa Calm   4.0mph /  6.4km/h 92% 0.00in /  0mm
04:54 51.0 °F /  10.6 °C 48.8 °F /  9.3 °C 30.00in /  1015.8hPa NNE 1.0mph /  1.6km/h 4.0mph /  6.4km/h 92% 0.00in /  0mm
04:59 51.0 °F /  10.6 °C 48.8 °F /  9.3 °C 30.00in /  1015.8hPa Calm   3.0mph /  4.8km/h 92% 0.00in /  0mm
05:04 51.0 °F /  10.6 °C 48.8 °F /  9.3 °C 30.01in /  1016.1hPa NNE 1.0mph /  1.6km/h 3.0mph /  4.8km/h 92% 0.00in /  0mm
05:09 51.0 °F /  10.6 °C 48.8 °F /  9.3 °C 30.01in /  1016.1hPa North 1.0mph /  1.6km/h 3.0mph /  4.8km/h 92% 0.00in /  0mm
05:14 51.1 °F /  10.6 °C 48.9 °F /  9.4 °C 30.01in /  1016.1hPa NNW 2.0mph /  3.2km/h 3.0mph /  4.8km/h 92% 0.00in /  0mm
05:19 51.1 °F /  10.6 °C 48.9 °F /  9.4 °C 30.01in /  1016.1hPa NNW 1.0mph /  1.6km/h 3.0mph /  4.8km/h 92% 0.00in /  0mm
05:24 51.1 °F /  10.6 °C 48.9 °F /  9.4 °C 30.01in /  1016.1hPa WNW 2.0mph /  3.2km/h 7.0mph /  11.3km/h 92% 0.00in /  0mm
05:29 51.2 °F /  10.7 °C 49.0 °F /  9.4 °C 30.01in /  1016.1hPa Calm   5.0mph /  8km/h 92% 0.00in /  0mm
05:34 51.2 °F /  10.7 °C 49.0 °F /  9.4 °C 30.02in /  1016.5hPa NNE 1.0mph /  1.6km/h 4.0mph /  6.4km/h 92% 0.00in /  0mm
05:39 51.1 °F /  10.6 °C 48.9 °F /  9.4 °C 30.02in /  1016.5hPa NNE 3.0mph /  4.8km/h 7.0mph /  11.3km/h 92% 0.00in /  0mm
05:44 51.1 °F /  10.6 °C 48.6 °F /  9.2 °C 30.02in /  1016.5hPa NE 3.0mph /  4.8km/h 7.0mph /  11.3km/h 91% 0.00in /  0mm
05:49 51.1 °F /  10.6 °C 48.6 °F /  9.2 °C 30.02in /  1016.5hPa NNE 2.0mph /  3.2km/h 7.0mph /  11.3km/h 91% 0.00in /  0mm
05:54 51.2 °F /  10.7 °C 48.7 °F /  9.3 °C 30.02in /  1016.5hPa NNE 2.0mph /  3.2km/h 4.0mph /  6.4km/h 91% 0.00in /  0mm
05:59 51.1 °F /  10.6 °C 48.9 °F /  9.4 °C 30.02in /  1016.5hPa NNE 3.0mph /  4.8km/h 8.0mph /  12.9km/h 92% 0.00in /  0mm
06:04 51.1 °F /  10.6 °C 48.6 °F /  9.2 °C 30.03in /  1016.8hPa NNE 1.0mph /  1.6km/h 6.0mph /  9.7km/h 91% 0.00in /  0mm
06:09 51.2 °F /  10.7 °C 49.0 °F /  9.4 °C 30.03in /  1016.8hPa NNW 2.0mph /  3.2km/h 5.0mph /  8km/h 92% 0.00in /  0mm
06:14 51.1 °F /  10.6 °C 48.6 °F /  9.2 °C 30.03in /  1016.8hPa NNE 2.0mph /  3.2km/h 6.0mph /  9.7km/h 91% 0.00in /  0mm
06:19 51.2 °F /  10.7 °C 48.7 °F /  9.3 °C 30.04in /  1017.2hPa NNE 3.0mph /  4.8km/h 4.0mph /  6.4km/h 91% 0.00in /  0mm
06:24 51.2 °F /  10.7 °C 48.7 °F /  9.3 °C 30.04in /  1017.2hPa NE 6.0mph /  9.7km/h 8.0mph /  12.9km/h 91% 0.00in /  0mm
06:29 51.0 °F /  10.6 °C 48.5 °F /  9.2 °C 30.04in /  1017.2hPa NNE 3.0mph /  4.8km/h 11.0mph /  17.7km/h 91% 0.00in /  0mm
06:34 51.1 °F /  10.6 °C 48.6 °F /  9.2 °C 30.04in /  1017.2hPa NE 2.0mph /  3.2km/h 8.0mph /  12.9km/h 91% 0.00in /  0mm
06:39 51.0 °F /  10.6 °C 48.5 °F /  9.2 °C 30.04in /  1017.2hPa NNE 4.0mph /  6.4km/h 12.0mph /  19.3km/h 91% 0.00in /  0mm
06:44 51.1 °F /  10.6 °C 48.3 °F /  9.1 °C 30.05in /  1017.5hPa NE 4.0mph /  6.4km/h 12.0mph /  19.3km/h 90% 0.00in /  0mm
06:49 51.0 °F /  10.6 °C 48.2 °F /  9 °C 30.05in /  1017.5hPa NE 4.0mph /  6.4km/h 11.0mph /  17.7km/h 90% 0.00in /  0mm
06:54 51.0 °F /  10.6 °C 47.9 °F /  8.8 °C 30.05in /  1017.5hPa NE 5.0mph /  8km/h 11.0mph /  17.7km/h 89% 0.00in /  0mm
06:59 51.2 °F /  10.7 °C 48.1 °F /  8.9 °C 30.05in /  1017.5hPa NE 5.0mph /  8km/h 13.0mph /  20.9km/h 89% 0.00in /  0mm
07:04 51.2 °F /  10.7 °C 48.1 °F /  8.9 °C 30.05in /  1017.5hPa NE 2.0mph /  3.2km/h 10.0mph /  16.1km/h 89% 0.00in /  0mm
07:09 51.2 °F /  10.7 °C 48.1 °F /  8.9 °C 30.05in /  1017.5hPa NE 3.0mph /  4.8km/h 10.0mph /  16.1km/h 89% 0.00in /  0mm
07:14 51.5 °F /  10.8 °C 48.4 °F /  9.1 °C 30.05in /  1017.5hPa NE 3.0mph /  4.8km/h 10.0mph /  16.1km/h 89% 0.00in /  0mm
07:19 51.6 °F /  10.9 °C 47.9 °F /  8.8 °C 30.05in /  1017.5hPa NE 7.0mph /  11.3km/h 13.0mph /  20.9km/h 87% 0.00in /  0mm
07:24 51.9 °F /  11.1 °C 48.2 °F /  9 °C 30.05in /  1017.5hPa NE 5.0mph /  8km/h 7.0mph /  11.3km/h 87% 0.00in /  0mm
07:29 52.3 °F /  11.3 °C 48.2 °F /  9 °C 30.05in /  1017.5hPa NE 13.0mph /  20.9km/h 15.0mph /  24.1km/h 86% 0.00in /  0mm
07:34 52.4 °F /  11.3 °C 48.0 °F /  8.9 °C 30.06in /  1017.8hPa NNE 8.0mph /  12.9km/h 12.0mph /  19.3km/h 85% 0.00in /  0mm
07:39 52.4 °F /  11.3 °C 48.0 °F /  8.9 °C 30.06in /  1017.8hPa NE 5.0mph /  8km/h 14.0mph /  22.5km/h 85% 0.00in /  0mm
07:44 52.7 °F /  11.5 °C 48.3 °F /  9.1 °C 30.06in /  1017.8hPa NE 6.0mph /  9.7km/h 17.0mph /  27.4km/h 85% 0.00in /  0mm
07:49 52.8 °F /  11.6 °C 48.4 °F /  9.1 °C 30.06in /  1017.8hPa NE 6.0mph /  9.7km/h 17.0mph /  27.4km/h 85% 0.00in /  0mm
07:54 52.7 °F /  11.5 °C 48.0 °F /  8.9 °C 30.06in /  1017.8hPa ENE 6.0mph /  9.7km/h 11.0mph /  17.7km/h 84% 0.00in /  0mm
07:59 52.8 °F /  11.6 °C 48.1 °F /  8.9 °C 30.07in /  1018.2hPa NE 4.0mph /  6.4km/h 11.0mph /  17.7km/h 84% 0.00in /  0mm
08:04 53.0 °F /  11.7 °C 48.3 °F /  9.1 °C 30.07in /  1018.2hPa NE 7.0mph /  11.3km/h 11.0mph /  17.7km/h 84% 0.00in /  0mm
08:09 52.8 °F /  11.6 °C 47.8 °F /  8.8 °C 30.07in /  1018.2hPa NE 5.0mph /  8km/h 13.0mph /  20.9km/h 83% 0.00in /  0mm
08:14 52.7 °F /  11.5 °C 48.0 °F /  8.9 °C 30.08in /  1018.5hPa ENE 7.0mph /  11.3km/h 13.0mph /  20.9km/h 84% 0.00in /  0mm
08:19 52.9 °F /  11.6 °C 47.9 °F /  8.8 °C 30.07in /  1018.2hPa ENE 7.0mph /  11.3km/h 14.0mph /  22.5km/h 83% 0.00in /  0mm
08:24 53.0 °F /  11.7 °C 47.7 °F /  8.7 °C 30.07in /  1018.2hPa NE 7.0mph /  11.3km/h 14.0mph /  22.5km/h 82% 0.00in /  0mm
08:29 52.9 °F /  11.6 °C 47.6 °F /  8.7 °C 30.08in /  1018.5hPa NE 7.0mph /  11.3km/h 14.0mph /  22.5km/h 82% 0.00in /  0mm
08:34 53.4 °F /  11.9 °C 47.7 °F /  8.7 °C 30.08in /  1018.5hPa NE 8.0mph /  12.9km/h 14.0mph /  22.5km/h 81% 0.00in /  0mm
08:39 53.4 °F /  11.9 °C 47.4 °F /  8.6 °C 30.08in /  1018.5hPa NE 6.0mph /  9.7km/h 13.0mph /  20.9km/h 80% 0.00in /  0mm
08:44 53.5 °F /  11.9 °C 47.5 °F /  8.6 °C 30.08in /  1018.5hPa NE 5.0mph /  8km/h 14.0mph /  22.5km/h 80% 0.00in /  0mm
08:49 53.6 °F /  12 °C 47.6 °F /  8.7 °C 30.08in /  1018.5hPa ENE 9.0mph /  14.5km/h 11.0mph /  17.7km/h 80% 0.00in /  0mm
08:54 53.7 °F /  12.1 °C 47.7 °F /  8.7 °C 30.08in /  1018.5hPa ENE 5.0mph /  8km/h 12.0mph /  19.3km/h 80% 0.00in /  0mm
08:59 53.7 °F /  12.1 °C 47.7 °F /  8.7 °C 30.09in /  1018.8hPa NE 6.0mph /  9.7km/h 11.0mph /  17.7km/h 80% 0.00in /  0mm
09:04 55.0 °F /  12.8 °C 48.6 °F /  9.2 °C 30.09in /  1018.8hPa East 7.0mph /  11.3km/h 14.0mph /  22.5km/h 79% 0.00in /  0mm
09:09 56.0 °F /  13.3 °C 49.2 °F /  9.6 °C 30.09in /  1018.8hPa ENE 6.0mph /  9.7km/h 14.0mph /  22.5km/h 78% 0.00in /  0mm
09:14 56.5 °F /  13.6 °C 49.0 °F /  9.4 °C 30.09in /  1018.8hPa ENE 5.0mph /  8km/h 11.0mph /  17.7km/h 76% 0.00in /  0mm
09:19 56.1 °F /  13.4 °C 48.6 °F /  9.2 °C 30.09in /  1018.8hPa NE 5.0mph /  8km/h 11.0mph /  17.7km/h 76% 0.00in /  0mm
09:24 56.4 °F /  13.6 °C 48.6 °F /  9.2 °C 30.09in /  1018.8hPa NE 6.0mph /  9.7km/h 12.0mph /  19.3km/h 75% 0.00in /  0mm
09:29 56.1 °F /  13.4 °C 48.6 °F /  9.2 °C 30.09in /  1018.8hPa NNE 7.0mph /  11.3km/h 10.0mph /  16.1km/h 76% 0.00in /  0mm
09:34 56.9 °F /  13.8 °C 49.1 °F /  9.5 °C 30.10in /  1019.2hPa NE 5.0mph /  8km/h 10.0mph /  16.1km/h 75% 0.00in /  0mm
09:39 57.3 °F /  14.1 °C 49.4 °F /  9.7 °C 30.09in /  1018.8hPa ENE 4.0mph /  6.4km/h 9.0mph /  14.5km/h 75% 0.00in /  0mm
09:44 57.3 °F /  14.1 °C 48.7 °F /  9.3 °C 30.10in /  1019.2hPa ENE 5.0mph /  8km/h 10.0mph /  16.1km/h 73% 0.00in /  0mm
09:49 58.2 °F /  14.6 °C 49.6 °F /  9.8 °C 30.10in /  1019.2hPa East 1.0mph /  1.6km/h 10.0mph /  16.1km/h 73% 0.00in /  0mm
09:54 58.3 °F /  14.6 °C 49.3 °F /  9.6 °C 30.09in /  1018.8hPa NE 4.0mph /  6.4km/h 9.0mph /  14.5km/h 72% 0.00in /  0mm
09:59 57.7 °F /  14.3 °C 48.4 °F /  9.1 °C 30.09in /  1018.8hPa NE 7.0mph /  11.3km/h 13.0mph /  20.9km/h 71% 0.00in /  0mm
10:04 58.2 °F /  14.6 °C 50.0 °F /  10 °C 30.09in /  1018.8hPa NE 4.0mph /  6.4km/h 8.0mph /  12.9km/h 74% 0.00in /  0mm
10:09 58.6 °F /  14.8 °C 49.6 °F /  9.8 °C 30.09in /  1018.8hPa ENE 5.0mph /  8km/h 10.0mph /  16.1km/h 72% 0.00in /  0mm
10:14 59.1 °F /  15.1 °C 50.1 °F /  10.1 °C 30.09in /  1018.8hPa ENE 5.0mph /  8km/h 11.0mph /  17.7km/h 72% 0.00in /  0mm
10:19 59.1 °F /  15.1 °C 49.7 °F /  9.8 °C 30.09in /  1018.8hPa ENE 6.0mph /  9.7km/h 12.0mph /  19.3km/h 71% 0.00in /  0mm
10:24 60.2 °F /  15.7 °C 51.1 °F /  10.6 °C 30.09in /  1018.8hPa ENE 5.0mph /  8km/h 12.0mph /  19.3km/h 72% 0.00in /  0mm
10:29 60.0 °F /  15.6 °C 49.8 °F /  9.9 °C 30.09in /  1018.8hPa NE 5.0mph /  8km/h 12.0mph /  19.3km/h 69% 0.00in /  0mm
10:34 60.4 °F /  15.8 °C 51.0 °F /  10.6 °C 30.09in /  1018.8hPa ENE 5.0mph /  8km/h 10.0mph /  16.1km/h 71% 0.00in /  0mm
10:39 60.5 °F /  15.8 °C 50.3 °F /  10.2 °C 30.09in /  1018.8hPa ENE 6.0mph /  9.7km/h 11.0mph /  17.7km/h 69% 0.00in /  0mm
10:44 60.7 °F /  15.9 °C 50.5 °F /  10.3 °C 30.09in /  1018.8hPa ENE 12.0mph /  19.3km/h 14.0mph /  22.5km/h 69% 0.00in /  0mm
10:49 61.1 °F /  16.2 °C 50.5 °F /  10.3 °C 30.09in /  1018.8hPa NE 6.0mph /  9.7km/h 12.0mph /  19.3km/h 68% 0.00in /  0mm
10:54 61.4 °F /  16.3 °C 51.1 °F /  10.6 °C 30.09in /  1018.8hPa NE 4.0mph /  6.4km/h 10.0mph /  16.1km/h 69% 0.00in /  0mm
10:59 62.2 °F /  16.8 °C 51.1 °F /  10.6 °C 30.09in /  1018.8hPa ENE 5.0mph /  8km/h 11.0mph /  17.7km/h 67% 0.00in /  0mm
11:04 62.3 °F /  16.8 °C 50.4 °F /  10.2 °C 30.09in /  1018.8hPa NE 2.0mph /  3.2km/h 11.0mph /  17.7km/h 65% 0.00in /  0mm
11:09 63.1 °F /  17.3 °C 52.0 °F /  11.1 °C 30.09in /  1018.8hPa ENE 5.0mph /  8km/h 11.0mph /  17.7km/h 67% 0.00in /  0mm
11:14 62.9 °F /  17.2 °C 50.1 °F /  10.1 °C 30.09in /  1018.8hPa NE 6.0mph /  9.7km/h 13.0mph /  20.9km/h 63% 0.00in /  0mm
11:19 62.6 °F /  17 °C 51.1 °F /  10.6 °C 30.09in /  1018.8hPa NE 6.0mph /  9.7km/h 13.0mph /  20.9km/h 66% 0.00in /  0mm
11:24 63.3 °F /  17.4 °C 51.7 °F /  10.9 °C 30.09in /  1018.8hPa NE 5.0mph /  8km/h 12.0mph /  19.3km/h 66% 0.00in /  0mm
11:29 64.1 °F /  17.8 °C 52.5 °F /  11.4 °C 30.09in /  1018.8hPa NNE 5.0mph /  8km/h 9.0mph /  14.5km/h 66% 0.00in /  0mm
11:39 63.9 °F /  17.7 °C 50.6 °F /  10.3 °C 30.09in /  1018.8hPa ENE 7.0mph /  11.3km/h 13.0mph /  20.9km/h 62% 0.00in /  0mm
11:49 64.2 °F /  17.9 °C 49.6 °F /  9.8 °C 30.09in /  1018.8hPa NE 6.0mph /  9.7km/h 13.0mph /  20.9km/h 59% 0.00in /  0mm
11:54 64.3 °F /  17.9 °C 50.1 °F /  10.1 °C 30.09in /  1018.8hPa ENE 7.0mph /  11.3km/h 15.0mph /  24.1km/h 60% 0.00in /  0mm
11:59 65.0 °F /  18.3 °C 50.8 °F /  10.4 °C 30.08in /  1018.5hPa ENE 6.0mph /  9.7km/h 15.0mph /  24.1km/h 60% 0.00in /  0mm
12:04 65.0 °F /  18.3 °C 51.2 °F /  10.7 °C 30.08in /  1018.5hPa NE 2.0mph /  3.2km/h 14.0mph /  22.5km/h 61% 0.00in /  0mm
12:09 65.8 °F /  18.8 °C 52.0 °F /  11.1 °C 30.08in /  1018.5hPa NNE 5.0mph /  8km/h 9.0mph /  14.5km/h 61% 0.00in /  0mm
12:14 65.9 °F /  18.8 °C 51.2 °F /  10.7 °C 30.08in /  1018.5hPa NE 5.0mph /  8km/h 9.0mph /  14.5km/h 59% 0.00in /  0mm
12:19 66.1 °F /  18.9 °C 50.4 °F /  10.2 °C 30.08in /  1018.5hPa ENE 5.0mph /  8km/h 11.0mph /  17.7km/h 57% 0.00in /  0mm
12:24 66.3 °F /  19.1 °C 49.6 °F /  9.8 °C 30.08in /  1018.5hPa SE 3.0mph /  4.8km/h 13.0mph /  20.9km/h 55% 0.00in /  0mm
12:29 66.4 °F /  19.1 °C 50.2 °F /  10.1 °C 30.08in /  1018.5hPa ENE 4.0mph /  6.4km/h 14.0mph /  22.5km/h 56% 0.00in /  0mm
12:34 66.7 °F /  19.3 °C 50.5 °F /  10.3 °C 30.08in /  1018.5hPa NE 3.0mph /  4.8km/h 11.0mph /  17.7km/h 56% 0.00in /  0mm
12:39 66.8 °F /  19.3 °C 50.6 °F /  10.3 °C 30.08in /  1018.5hPa NE 2.0mph /  3.2km/h 11.0mph /  17.7km/h 56% 0.00in /  0mm
12:44 67.2 °F /  19.6 °C 51.0 °F /  10.6 °C 30.08in /  1018.5hPa East 8.0mph /  12.9km/h 10.0mph /  16.1km/h 56% 0.00in /  0mm
12:49 66.7 °F /  19.3 °C 50.5 °F /  10.3 °C 30.08in /  1018.5hPa ENE 5.0mph /  8km/h 12.0mph /  19.3km/h 56% 0.00in /  0mm
12:54 66.6 °F /  19.2 °C 49.9 °F /  9.9 °C 30.08in /  1018.5hPa NE 6.0mph /  9.7km/h 14.0mph /  22.5km/h 55% 0.00in /  0mm
12:59 67.4 °F /  19.7 °C 50.7 °F /  10.4 °C 30.08in /  1018.5hPa ENE 5.0mph /  8km/h 14.0mph /  22.5km/h 55% 0.00in /  0mm
13:04 67.4 °F /  19.7 °C 52.1 °F /  11.2 °C 30.08in /  1018.5hPa ENE 4.0mph /  6.4km/h 17.0mph /  27.4km/h 58% 0.00in /  0mm
13:09 67.1 °F /  19.5 °C 51.4 °F /  10.8 °C 30.08in /  1018.5hPa NE 5.0mph /  8km/h 15.0mph /  24.1km/h 57% 0.00in /  0mm
13:14 67.2 °F /  19.6 °C 52.4 °F /  11.3 °C 30.08in /  1018.5hPa NE 5.0mph /  8km/h 15.0mph /  24.1km/h 59% 0.00in /  0mm
13:19 68.0 °F /  20 °C 51.2 °F /  10.7 °C 30.08in /  1018.5hPa NE 5.0mph /  8km/h 11.0mph /  17.7km/h 55% 0.00in /  0mm
13:24 67.7 °F /  19.8 °C 50.5 °F /  10.3 °C 30.08in /  1018.5hPa NE 3.0mph /  4.8km/h 11.0mph /  17.7km/h 54% 0.00in /  0mm
13:29 68.5 °F /  20.3 °C 51.7 °F /  10.9 °C 30.07in /  1018.2hPa NE 5.0mph /  8km/h 14.0mph /  22.5km/h 55% 0.00in /  0mm
13:34 68.1 °F /  20.1 °C 51.3 °F /  10.7 °C 30.07in /  1018.2hPa North 4.0mph /  6.4km/h 11.0mph /  17.7km/h 55% 0.00in /  0mm
13:39 67.2 °F /  19.6 °C 50.0 °F /  10 °C 30.08in /  1018.5hPa NE 11.0mph /  17.7km/h 17.0mph /  27.4km/h 54% 0.00in /  0mm
13:44 67.4 °F /  19.7 °C 49.7 °F /  9.8 °C 30.08in /  1018.5hPa NE 7.0mph /  11.3km/h 17.0mph /  27.4km/h 53% 0.00in /  0mm
13:49 68.4 °F /  20.2 °C 53.5 °F /  11.9 °C 30.07in /  1018.2hPa NE 5.0mph /  8km/h 13.0mph /  20.9km/h 59% 0.00in /  0mm
13:54 67.7 °F /  19.8 °C 49.4 °F /  9.7 °C 30.07in /  1018.2hPa NE 5.0mph /  8km/h 13.0mph /  20.9km/h 52% 0.00in /  0mm
13:59 68.4 °F /  20.2 °C 50.6 °F /  10.3 °C 30.08in /  1018.5hPa NE 6.0mph /  9.7km/h 13.0mph /  20.9km/h 53% 0.00in /  0mm
14:04 68.8 °F /  20.4 °C 49.9 °F /  9.9 °C 30.07in /  1018.2hPa ENE 6.0mph /  9.7km/h 12.0mph /  19.3km/h 51% 0.00in /  0mm
14:09 68.2 °F /  20.1 °C 49.9 °F /  9.9 °C 30.07in /  1018.2hPa ENE 6.0mph /  9.7km/h 12.0mph /  19.3km/h 52% 0.00in /  0mm
14:14 67.8 °F /  19.9 °C 48.5 °F /  9.2 °C 30.07in /  1018.2hPa NNE 3.0mph /  4.8km/h 10.0mph /  16.1km/h 50% 0.00in /  0mm
14:19 68.3 °F /  20.2 °C 50.0 °F /  10 °C 30.07in /  1018.2hPa ENE 5.0mph /  8km/h 12.0mph /  19.3km/h 52% 0.00in /  0mm
14:24 68.8 °F /  20.4 °C 51.0 °F /  10.6 °C 30.07in /  1018.2hPa NNE 4.0mph /  6.4km/h 12.0mph /  19.3km/h 53% 0.00in /  0mm
14:29 67.2 °F /  19.6 °C 47.9 °F /  8.8 °C 30.07in /  1018.2hPa NE 5.0mph /  8km/h 11.0mph /  17.7km/h 50% 0.00in /  0mm
14:34 66.9 °F /  19.4 °C 50.7 °F /  10.4 °C 30.07in /  1018.2hPa Calm   10.0mph /  16.1km/h 56% 0.00in /  0mm
14:39 69.1 °F /  20.6 °C 50.7 °F /  10.4 °C 30.07in /  1018.2hPa ENE 8.0mph /  12.9km/h 8.0mph /  12.9km/h 52% 0.00in /  0mm
14:44 69.0 °F /  20.6 °C 49.0 °F /  9.4 °C 30.07in /  1018.2hPa ENE 4.0mph /  6.4km/h 15.0mph /  24.1km/h 49% 0.00in /  0mm
14:49 69.1 °F /  20.6 °C 50.2 °F /  10.1 °C 30.07in /  1018.2hPa ENE 5.0mph /  8km/h 15.0mph /  24.1km/h 51% 0.00in /  0mm
14:54 68.5 °F /  20.3 °C 46.3 °F /  7.9 °C 30.07in /  1018.2hPa ENE 6.0mph /  9.7km/h 15.0mph /  24.1km/h 45% 0.00in /  0mm
14:59 69.2 °F /  20.7 °C 49.8 °F /  9.9 °C 30.07in /  1018.2hPa ENE 7.0mph /  11.3km/h 15.0mph /  24.1km/h 50% 0.00in /  0mm
15:04 69.5 °F /  20.8 °C 48.9 °F /  9.4 °C 30.07in /  1018.2hPa ENE 6.0mph /  9.7km/h 13.0mph /  20.9km/h 48% 0.00in /  0mm
15:09 69.6 °F /  20.9 °C 47.9 °F /  8.8 °C 30.07in /  1018.2hPa NNE 4.0mph /  6.4km/h 10.0mph /  16.1km/h 46% 0.00in /  0mm
15:14 70.0 °F /  21.1 °C 51.0 °F /  10.6 °C 30.06in /  1017.8hPa NNE 2.0mph /  3.2km/h 11.0mph /  17.7km/h 51% 0.00in /  0mm
15:19 69.5 °F /  20.8 °C 48.9 °F /  9.4 °C 30.06in /  1017.8hPa NE 5.0mph /  8km/h 12.0mph /  19.3km/h 48% 0.00in /  0mm
15:24 68.0 °F /  20 °C 47.6 °F /  8.7 °C 30.06in /  1017.8hPa NE 5.0mph /  8km/h 13.0mph /  20.9km/h 48% 0.00in /  0mm
15:29 69.2 °F /  20.7 °C 49.8 °F /  9.9 °C 30.06in /  1017.8hPa ENE 7.0mph /  11.3km/h 13.0mph /  20.9km/h 50% 0.00in /  0mm
15:34 69.9 °F /  21.1 °C 48.7 °F /  9.3 °C 30.06in /  1017.8hPa ENE 5.0mph /  8km/h 9.0mph /  14.5km/h 47% 0.00in /  0mm
15:39 70.5 °F /  21.4 °C 48.1 °F /  8.9 °C 30.06in /  1017.8hPa ENE 9.0mph /  14.5km/h 11.0mph /  17.7km/h 45% 0.00in /  0mm
15:44 70.1 °F /  21.2 °C 48.9 °F /  9.4 °C 30.06in /  1017.8hPa NE 9.0mph /  14.5km/h 10.0mph /  16.1km/h 47% 0.00in /  0mm
15:49 70.1 °F /  21.2 °C 51.1 °F /  10.6 °C 30.06in /  1017.8hPa ENE 7.0mph /  11.3km/h 11.0mph /  17.7km/h 51% 0.00in /  0mm
15:54 69.6 °F /  20.9 °C 49.0 °F /  9.4 °C 30.05in /  1017.5hPa NE 5.0mph /  8km/h 15.0mph /  24.1km/h 48% 0.00in /  0mm
15:59 68.9 °F /  20.5 °C 48.9 °F /  9.4 °C 30.05in /  1017.5hPa NE 6.0mph /  9.7km/h 15.0mph /  24.1km/h 49% 0.00in /  0mm
16:04 69.4 °F /  20.8 °C 51.5 °F /  10.8 °C 30.05in /  1017.5hPa NE 1.0mph /  1.6km/h 8.0mph /  12.9km/h 53% 0.00in /  0mm
16:09 69.9 °F /  21.1 °C 50.4 °F /  10.2 °C 30.05in /  1017.5hPa NE 2.0mph /  3.2km/h 7.0mph /  11.3km/h 50% 0.00in /  0mm
16:14 70.0 °F /  21.1 °C 48.8 °F /  9.3 °C 30.05in /  1017.5hPa ENE 3.0mph /  4.8km/h 12.0mph /  19.3km/h 47% 0.00in /  0mm
16:19 69.7 °F /  20.9 °C 47.4 °F /  8.6 °C 30.05in /  1017.5hPa ENE 4.0mph /  6.4km/h 8.0mph /  12.9km/h 45% 0.00in /  0mm
16:24 69.9 °F /  21.1 °C 47.0 °F /  8.3 °C 30.04in /  1017.2hPa ENE 4.0mph /  6.4km/h 8.0mph /  12.9km/h 44% 0.00in /  0mm
16:29 70.8 °F /  21.6 °C 48.4 °F /  9.1 °C 30.04in /  1017.2hPa ENE 3.0mph /  4.8km/h 8.0mph /  12.9km/h 45% 0.00in /  0mm
16:34 70.7 °F /  21.5 °C 48.3 °F /  9.1 °C 30.05in /  1017.5hPa ENE 3.0mph /  4.8km/h 9.0mph /  14.5km/h 45% 0.00in /  0mm
16:39 70.4 °F /  21.3 °C 49.2 °F /  9.6 °C 30.05in /  1017.5hPa ESE 4.0mph /  6.4km/h 8.0mph /  12.9km/h 47% 0.00in /  0mm
16:44 70.5 °F /  21.4 °C 47.5 °F /  8.6 °C 30.05in /  1017.5hPa East 3.0mph /  4.8km/h 10.0mph /  16.1km/h 44% 0.00in /  0mm
16:49 70.6 °F /  21.4 °C 47.0 °F /  8.3 °C 30.05in /  1017.5hPa NNE 5.0mph /  8km/h 10.0mph /  16.1km/h 43% 0.00in /  0mm
16:54 70.3 °F /  21.3 °C 48.5 °F /  9.2 °C 30.05in /  1017.5hPa NNE 4.0mph /  6.4km/h 10.0mph /  16.1km/h 46% 0.00in /  0mm
16:59 70.3 °F /  21.3 °C 48.5 °F /  9.2 °C 30.05in /  1017.5hPa NNE 2.0mph /  3.2km/h 11.0mph /  17.7km/h 46% 0.00in /  0mm
17:04 69.9 °F /  21.1 °C 45.8 °F /  7.7 °C 30.05in /  1017.5hPa NE 4.0mph /  6.4km/h 8.0mph /  12.9km/h 42% 0.00in /  0mm
17:09 69.7 °F /  20.9 °C 44.9 °F /  7.2 °C 30.04in /  1017.2hPa East 3.0mph /  4.8km/h 11.0mph /  17.7km/h 41% 0.00in /  0mm
17:14 70.2 °F /  21.2 °C 49.0 °F /  9.4 °C 30.04in /  1017.2hPa NNE 6.0mph /  9.7km/h 8.0mph /  12.9km/h 47% 0.00in /  0mm
17:19 70.1 °F /  21.2 °C 46.6 °F /  8.1 °C 30.05in /  1017.5hPa NE 5.0mph /  8km/h 11.0mph /  17.7km/h 43% 0.00in /  0mm
17:24 70.3 °F /  21.3 °C 47.9 °F /  8.8 °C 30.04in /  1017.2hPa NE 4.0mph /  6.4km/h 11.0mph /  17.7km/h 45% 0.00in /  0mm
17:29 70.6 °F /  21.4 °C 48.8 °F /  9.3 °C 30.04in /  1017.2hPa NNE 3.0mph /  4.8km/h 7.0mph /  11.3km/h 46% 0.00in /  0mm
17:34 70.6 °F /  21.4 °C 47.0 °F /  8.3 °C 30.04in /  1017.2hPa NE 3.0mph /  4.8km/h 9.0mph /  14.5km/h 43% 0.00in /  0mm
17:39 70.8 °F /  21.6 °C 47.2 °F /  8.4 °C 30.04in /  1017.2hPa NE 4.0mph /  6.4km/h 9.0mph /  14.5km/h 43% 0.00in /  0mm
17:44 70.6 °F /  21.4 °C 46.4 °F /  8 °C 30.04in /  1017.2hPa ENE 9.0mph /  14.5km/h 12.0mph /  19.3km/h 42% 0.00in /  0mm
17:49 70.0 °F /  21.1 °C 45.8 °F /  7.7 °C 30.04in /  1017.2hPa NE 5.0mph /  8km/h 12.0mph /  19.3km/h 42% 0.00in /  0mm
17:54 70.0 °F /  21.1 °C 47.1 °F /  8.4 °C 30.04in /  1017.2hPa NE 5.0mph /  8km/h 12.0mph /  19.3km/h 44% 0.00in /  0mm
17:59 70.3 °F /  21.3 °C 46.1 °F /  7.8 °C 30.04in /  1017.2hPa ENE 4.0mph /  6.4km/h 8.0mph /  12.9km/h 42% 0.00in /  0mm
18:04 70.3 °F /  21.3 °C 46.1 °F /  7.8 °C 30.04in /  1017.2hPa ENE 4.0mph /  6.4km/h 9.0mph /  14.5km/h 42% 0.00in /  0mm
18:09 69.9 °F /  21.1 °C 47.0 °F /  8.3 °C 30.04in /  1017.2hPa NE 4.0mph /  6.4km/h 9.0mph /  14.5km/h 44% 0.00in /  0mm
18:14 70.0 °F /  21.1 °C 47.1 °F /  8.4 °C 30.04in /  1017.2hPa North 2.0mph /  3.2km/h 4.0mph /  6.4km/h 44% 0.00in /  0mm
18:19 69.9 °F /  21.1 °C 47.0 °F /  8.3 °C 30.03in /  1016.8hPa North 3.0mph /  4.8km/h 8.0mph /  12.9km/h 44% 0.00in /  0mm
18:24 69.8 °F /  21 °C 47.5 °F /  8.6 °C 30.04in /  1017.2hPa NNE 4.0mph /  6.4km/h 6.0mph /  9.7km/h 45% 0.00in /  0mm
18:29 69.4 °F /  20.8 °C 45.9 °F /  7.7 °C 30.03in /  1016.8hPa NNE 3.0mph /  4.8km/h 8.0mph /  12.9km/h 43% 0.00in /  0mm
18:34 69.2 °F /  20.7 °C 47.5 °F /  8.6 °C 30.03in /  1016.8hPa NE 3.0mph /  4.8km/h 8.0mph /  12.9km/h 46% 0.00in /  0mm
18:39 68.9 °F /  20.5 °C 47.3 °F /  8.5 °C 30.03in /  1016.8hPa ENE 4.0mph /  6.4km/h 13.0mph /  20.9km/h 46% 0.00in /  0mm
18:44 68.6 °F /  20.3 °C 48.1 °F /  8.9 °C 30.03in /  1016.8hPa ENE 10.0mph /  16.1km/h 12.0mph /  19.3km/h 48% 0.00in /  0mm
18:49 68.4 °F /  20.2 °C 47.9 °F /  8.8 °C 30.03in /  1016.8hPa NNE 3.0mph /  4.8km/h 12.0mph /  19.3km/h 48% 0.00in /  0mm
18:54 68.3 °F /  20.2 °C 48.9 °F /  9.4 °C 30.03in /  1016.8hPa NE 5.0mph /  8km/h 9.0mph /  14.5km/h 50% 0.00in /  0mm
18:59 68.1 °F /  20.1 °C 47.7 °F /  8.7 °C 30.04in /  1017.2hPa NE 4.0mph /  6.4km/h 9.0mph /  14.5km/h 48% 0.00in /  0mm
19:04 67.9 °F /  19.9 °C 48.0 °F /  8.9 °C 30.04in /  1017.2hPa NE 5.0mph /  8km/h 9.0mph /  14.5km/h 49% 0.00in /  0mm
19:09 67.7 °F /  19.8 °C 47.8 °F /  8.8 °C 30.04in /  1017.2hPa NNE 2.0mph /  3.2km/h 4.0mph /  6.4km/h 49% 0.00in /  0mm
19:14 67.7 °F /  19.8 °C 47.3 °F /  8.5 °C 30.04in /  1017.2hPa NE 3.0mph /  4.8km/h 7.0mph /  11.3km/h 48% 0.00in /  0mm
19:19 67.2 °F /  19.6 °C 47.4 °F /  8.6 °C 30.04in /  1017.2hPa NNE 2.0mph /  3.2km/h 7.0mph /  11.3km/h 49% 0.00in /  0mm
19:24 66.9 °F /  19.4 °C 46.6 °F /  8.1 °C 30.04in /  1017.2hPa NNW 1.0mph /  1.6km/h 4.0mph /  6.4km/h 48% 0.00in /  0mm
19:29 66.7 °F /  19.3 °C 46.4 °F /  8 °C 30.04in /  1017.2hPa NNE 2.0mph /  3.2km/h 4.0mph /  6.4km/h 48% 0.00in /  0mm
19:34 66.6 °F /  19.2 °C 45.7 °F /  7.6 °C 30.04in /  1017.2hPa NNE 3.0mph /  4.8km/h 7.0mph /  11.3km/h 47% 0.00in /  0mm
19:39 66.7 °F /  19.3 °C 45.8 °F /  7.7 °C 30.04in /  1017.2hPa NE 3.0mph /  4.8km/h 9.0mph /  14.5km/h 47% 0.00in /  0mm
19:44 66.3 °F /  19.1 °C 46.0 °F /  7.8 °C 30.05in /  1017.5hPa NE 3.0mph /  4.8km/h 9.0mph /  14.5km/h 48% 0.00in /  0mm
19:49 66.1 °F /  18.9 °C 45.3 °F /  7.4 °C 30.05in /  1017.5hPa ENE 4.0mph /  6.4km/h 8.0mph /  12.9km/h 47% 0.00in /  0mm
19:54 66.0 °F /  18.9 °C 45.7 °F /  7.6 °C 30.05in /  1017.5hPa NE 2.0mph /  3.2km/h 7.0mph /  11.3km/h 48% 0.00in /  0mm
19:59 65.9 °F /  18.8 °C 44.5 °F /  6.9 °C 30.05in /  1017.5hPa NE 4.0mph /  6.4km/h 9.0mph /  14.5km/h 46% 0.00in /  0mm
20:04 65.8 °F /  18.8 °C 45.0 °F /  7.2 °C 30.05in /  1017.5hPa NE 4.0mph /  6.4km/h 9.0mph /  14.5km/h 47% 0.00in /  0mm
20:09 65.4 °F /  18.6 °C 44.6 °F /  7 °C 30.05in /  1017.5hPa NE 4.0mph /  6.4km/h 10.0mph /  16.1km/h 47% 0.00in /  0mm
20:14 65.3 °F /  18.5 °C 44.5 °F /  6.9 °C 30.05in /  1017.5hPa NE 4.0mph /  6.4km/h 10.0mph /  16.1km/h 47% 0.00in /  0mm
20:19 64.9 °F /  18.3 °C 44.7 °F /  7.1 °C 30.05in /  1017.5hPa ENE 4.0mph /  6.4km/h 7.0mph /  11.3km/h 48% 0.00in /  0mm
20:24 64.7 °F /  18.2 °C 44.5 °F /  6.9 °C 30.05in /  1017.5hPa NE 1.0mph /  1.6km/h 5.0mph /  8km/h 48% 0.00in /  0mm
20:29 64.5 °F /  18.1 °C 44.9 °F /  7.2 °C 30.05in /  1017.5hPa NE 2.0mph /  3.2km/h 5.0mph /  8km/h 49% 0.00in /  0mm
20:34 64.2 °F /  17.9 °C 45.2 °F /  7.3 °C 30.05in /  1017.5hPa NE 2.0mph /  3.2km/h 6.0mph /  9.7km/h 50% 0.00in /  0mm
20:39 63.7 °F /  17.6 °C 45.2 °F /  7.3 °C 30.05in /  1017.5hPa NNE 2.0mph /  3.2km/h 6.0mph /  9.7km/h 51% 0.00in /  0mm
20:44 63.4 °F /  17.4 °C 44.9 °F /  7.2 °C 30.05in /  1017.5hPa NNE 2.0mph /  3.2km/h 5.0mph /  8km/h 51% 0.00in /  0mm
20:49 63.4 °F /  17.4 °C 44.9 °F /  7.2 °C 30.05in /  1017.5hPa NE 3.0mph /  4.8km/h 4.0mph /  6.4km/h 51% 0.00in /  0mm
20:54 63.2 °F /  17.3 °C 44.8 °F /  7.1 °C 30.05in /  1017.5hPa Calm   4.0mph /  6.4km/h 51% 0.00in /  0mm
20:59 63.0 °F /  17.2 °C 45.1 °F /  7.3 °C 30.05in /  1017.5hPa Calm   4.0mph /  6.4km/h 52% 0.00in /  0mm
21:04 62.6 °F /  17 °C 45.7 °F /  7.6 °C 30.05in /  1017.5hPa NE 1.0mph /  1.6km/h 4.0mph /  6.4km/h 54% 0.00in /  0mm
21:09 61.9 °F /  16.6 °C 45.5 °F /  7.5 °C 30.05in /  1017.5hPa Calm   1.0mph /  1.6km/h 55% 0.00in /  0mm
21:14 61.8 °F /  16.6 °C 45.5 °F /  7.5 °C 30.05in /  1017.5hPa NE 1.0mph /  1.6km/h 4.0mph /  6.4km/h 55% 0.00in /  0mm
21:19 61.5 °F /  16.4 °C 45.2 °F /  7.3 °C 30.05in /  1017.5hPa Calm   1.0mph /  1.6km/h 55% 0.00in /  0mm
21:24 61.3 °F /  16.3 °C 45.0 °F /  7.2 °C 30.05in /  1017.5hPa Calm   3.0mph /  4.8km/h 55% 0.00in /  0mm
21:29 61.1 °F /  16.2 °C 45.7 °F /  7.6 °C 30.05in /  1017.5hPa Calm   2.0mph /  3.2km/h 57% 0.00in /  0mm
21:34 60.8 °F /  16 °C 45.5 °F /  7.5 °C 30.05in /  1017.5hPa Calm   2.0mph /  3.2km/h 57% 0.00in /  0mm
21:39 60.5 °F /  15.8 °C 45.6 °F /  7.6 °C 30.05in /  1017.5hPa Calm     58% 0.00in /  0mm
21:44 60.3 °F /  15.7 °C 45.5 °F /  7.5 °C 30.05in /  1017.5hPa Calm     58% 0.00in /  0mm
21:49 60.4 °F /  15.8 °C 45.5 °F /  7.5 °C 30.05in /  1017.5hPa Calm     58% 0.00in /  0mm
21:54 59.9 °F /  15.5 °C 46.0 °F /  7.8 °C 30.06in /  1017.8hPa Calm     60% 0.00in /  0mm
21:59 59.8 °F /  15.4 °C 45.4 °F /  7.4 °C 30.06in /  1017.8hPa Calm     59% 0.00in /  0mm
22:04 59.6 °F /  15.3 °C 45.7 °F /  7.6 °C 30.06in /  1017.8hPa Calm     60% 0.00in /  0mm
22:09 59.8 °F /  15.4 °C 45.9 °F /  7.7 °C 30.06in /  1017.8hPa NE 3.0mph /  4.8km/h 3.0mph /  4.8km/h 60% 0.00in /  0mm
22:14 59.7 °F /  15.4 °C 45.8 °F /  7.7 °C 30.06in /  1017.8hPa Calm   3.0mph /  4.8km/h 60% 0.00in /  0mm
22:19 59.9 °F /  15.5 °C 45.5 °F /  7.5 °C 30.07in /  1018.2hPa NE 1.0mph /  1.6km/h 3.0mph /  4.8km/h 59% 0.00in /  0mm
22:24 60.0 °F /  15.6 °C 45.6 °F /  7.6 °C 30.07in /  1018.2hPa Calm   3.0mph /  4.8km/h 59% 0.00in /  0mm
22:29 59.8 °F /  15.4 °C 45.9 °F /  7.7 °C 30.07in /  1018.2hPa Calm   1.0mph /  1.6km/h 60% 0.00in /  0mm
22:34 59.0 °F /  15 °C 45.6 °F /  7.6 °C 30.07in /  1018.2hPa Calm   1.0mph /  1.6km/h 61% 0.00in /  0mm
22:39 59.1 °F /  15.1 °C 45.7 °F /  7.6 °C 30.07in /  1018.2hPa Calm   4.0mph /  6.4km/h 61% 0.00in /  0mm
22:44 59.1 °F /  15.1 °C 45.7 °F /  7.6 °C 30.07in /  1018.2hPa Calm   4.0mph /  6.4km/h 61% 0.00in /  0mm
22:49 58.5 °F /  14.7 °C 45.5 °F /  7.5 °C 30.07in /  1018.2hPa Calm     62% 0.00in /  0mm
22:54 57.7 °F /  14.3 °C 45.6 °F /  7.6 °C 30.07in /  1018.2hPa Calm     64% 0.00in /  0mm
22:59 57.5 °F /  14.2 °C 45.8 °F /  7.7 °C 30.07in /  1018.2hPa Calm     65% 0.00in /  0mm
23:04 57.2 °F /  14 °C 45.9 °F /  7.7 °C 30.07in /  1018.2hPa Calm     66% 0.00in /  0mm
23:09 56.5 °F /  13.6 °C 45.7 °F /  7.6 °C 30.07in /  1018.2hPa Calm     67% 0.00in /  0mm
23:14 56.4 °F /  13.6 °C 45.6 °F /  7.6 °C 30.07in /  1018.2hPa Calm     67% 0.00in /  0mm
23:19 56.6 °F /  13.7 °C 45.8 °F /  7.7 °C 30.07in /  1018.2hPa Calm     67% 0.00in /  0mm
23:24 56.6 °F /  13.7 °C 45.8 °F /  7.7 °C 30.07in /  1018.2hPa Calm     67% 0.00in /  0mm
23:29 56.8 °F /  13.8 °C 45.6 °F /  7.6 °C 30.07in /  1018.2hPa Calm     66% 0.00in /  0mm
23:34 56.8 °F /  13.8 °C 45.6 °F /  7.6 °C 30.07in /  1018.2hPa Calm     66% 0.00in /  0mm
23:39 56.7 °F /  13.7 °C 45.9 °F /  7.7 °C 30.07in /  1018.2hPa Calm     67% 0.00in /  0mm
23:44 56.6 °F /  13.7 °C 46.2 °F /  7.9 °C 30.07in /  1018.2hPa Calm     68% 0.00in /  0mm
23:49 56.4 °F /  13.6 °C 46.4 °F /  8 °C 30.07in /  1018.2hPa Calm     69% 0.00in /  0mm
23:54 56.0 °F /  13.3 °C 46.0 °F /  7.8 °C 30.07in /  1018.2hPa Calm     69% 0.00in /  0mm
23:59 55.5 °F /  13.1 °C 46.2 °F /  7.9 °C 30.07in /  1018.2hPa Calm     71% 0.00in /  0mm
Buffalo, New York, USA
Compliments of Weather Underground - 2.5 mb